BM-0001 weather

CLOSED RNAS Boaz Island
Boaz Island, Bermuda

Public forecast

Using degrees Celsius for public forecast. Weather courtesy of forecast.io.

METAR (pilot weather report)

Closest report is L.F. Wade International International Airport, 8.6 nm (16.0 km) ENE. Retrieved 2019/02/16 18:55 UTC (14 minutes ago):

TXKF 161855Z 21015KT 9999 BKN006 BKN020 BKN110 OVC220 21/20 Q1011

TAF (pilot weather forecast)

Closest forecast is L.F. Wade International International Airport, 8.6 nm (16.0 km) ENE. Retrieved 2019/02/16 18:51 UTC (18 minutes ago):

TAF TXKF 161737Z 1618/1718 21014KT 8000 -RA BKN006 TEMPO 1618/1623 -SHRA SCT006 BKN012 PROB30 TEMPO 1618/1623 SCT012 BKN018 BECMG 1623/1702 26012KT 9999 NSW SCT008 BKN012 PROB30 TEMPO 1702/1710 -RA SCT012 BKN020 BECMG 1710/1713 BKN025